Eko 4 — SVAR8 — position and weather

sailwx.info

Track history (hours):
 
Tides and Currents Weather Stations Pressure Air Temp Water Temp Dewpoint Dewpoint Depression Visibility Wind Speed Wind Dir Waves Ship Positions

Eko 4

Last reported at 2017-Mar-30 20:31 UTC. Time now 2017-Mar-30 20:34 UTC.
Position N 38°02' E 023°32'.

Length 88 m; draft 5 m.

Type: Ship (hazmat cat A). MMSI: 240912000.

Date/timePositionNaut miles runAvg speedWind from/ knotsBaromVisibWave heightAir tempDewpointWater temp
2017-Mar-30 20:31N 38°02' E 023°32'0 0.0
2017-Mar-30 19:31N 38°02' E 023°32'0 0.0
2017-Mar-30 18:31N 38°02' E 023°32'0 0.0
2017-Mar-30 17:28N 38°02' E 023°32'0 0.0
2017-Mar-30 16:31N 38°02' E 023°32'0 0.5
2017-Mar-30 15:34N 38°01' E 023°32'7 6.8
2017-Mar-30 14:34N 37°55' E 023°36'0 0.4
2017-Mar-30 13:34N 37°55' E 023°36'5 5.3
2017-Mar-30 12:33N 37°50' E 023°39'1010.3
2017-Mar-30 11:33N 37°41' E 023°45'5 0.1
2017-Mar-28 14:08N 37°36' E 023°48'5 9.4
2017-Mar-28 13:33N 37°39' E 023°42'1010.4
2017-Mar-28 12:34N 37°49' E 023°37'9 9.0
2017-Mar-28 11:34N 37°57' E 023°33'4 4.1
2017-Mar-28 10:30N 38°01' E 023°36'0 0.0
2017-Mar-28 09:33N 38°01' E 023°36'0 0.0
2017-Mar-28 08:33N 38°01' E 023°36'0 0.0
2017-Mar-28 07:33N 38°01' E 023°36'0 0.0
2017-Mar-28 06:33N 38°01' E 023°36'0 0.0
2017-Mar-28 05:33N 38°01' E 023°36'0 0.0
2017-Mar-28 04:33N 38°01' E 023°36'0 0.0
2017-Mar-28 03:33N 38°01' E 023°36'0 0.0
2017-Mar-28 02:33N 38°01' E 023°36'0 0.0
2017-Mar-28 01:33N 38°01' E 023°36'0 0.0
2017-Mar-28 00:33N 38°01' E 023°36'0 0.0
2017-Mar-27 23:33N 38°01' E 023°36'0 0.0
2017-Mar-27 22:33N 38°01' E 023°36'0 0.0
2017-Mar-27 21:33N 38°01' E 023°36'0 0.0
2017-Mar-27 20:33N 38°01' E 023°36'0 0.0
2017-Mar-27 19:33N 38°01' E 023°36'0 0.0
2017-Mar-27 18:33N 38°01' E 023°36'0 0.0
2017-Mar-27 17:33N 38°01' E 023°36'0 0.0
2017-Mar-27 16:33N 38°01' E 023°36'0 0.0
2017-Mar-27 15:33N 38°01' E 023°36'0 0.0
2017-Mar-27 14:33N 38°01' E 023°36'0 0.0
2017-Mar-27 13:33N 38°01' E 023°36'0 0.0
2017-Mar-27 12:33N 38°01' E 023°36'3 3.3
2017-Mar-27 11:31N 38°02' E 023°31'0 0.0
2017-Mar-27 10:31N 38°02' E 023°31'0 0.0
2017-Mar-27 09:31N 38°02' E 023°31'0 0.0
2017-Mar-27 08:31N 38°02' E 023°31'0 0.0
2017-Mar-27 07:31N 38°02' E 023°31'0 0.0
2017-Mar-27 06:31N 38°02' E 023°31'0 0.0
2017-Mar-27 05:34N 38°02' E 023°31'1 0.8
2017-Mar-27 04:33N 38°01' E 023°32'3 0.2
2017-Mar-26 16:11N 38°02' E 023°36'3 4.5
2017-Mar-26 15:33N 38°01' E 023°32'0 0.1
2017-Mar-26 14:33N 38°01' E 023°32'0 0.0
2017-Mar-26 13:33N 38°01' E 023°32'0 0.0
2017-Mar-26 12:33N 38°01' E 023°32'0 0.0
2017-Mar-26 11:33N 38°01' E 023°32'0 0.0
2017-Mar-26 10:33N 38°01' E 023°32'0 0.0
2017-Mar-26 09:33N 38°01' E 023°32'0 0.0
2017-Mar-26 08:33N 38°01' E 023°32'0 0.1
2017-Mar-26 07:33N 38°01' E 023°32'0 0.0
2017-Mar-26 06:33N 38°01' E 023°32'0 0.0
2017-Mar-26 05:33N 38°01' E 023°32'0 0.0
2017-Mar-26 04:33N 38°01' E 023°32'0 0.0
2017-Mar-26 03:33N 38°01' E 023°32'0 0.0
2017-Mar-26 02:33N 38°01' E 023°32'0 0.0
2017-Mar-26 01:33N 38°01' E 023°32'0 0.0
2017-Mar-26 00:33N 38°01' E 023°32'0 0.0
2017-Mar-25 23:33N 38°01' E 023°32'0 0.0
2017-Mar-25 22:33N 38°01' E 023°32'0 0.0
2017-Mar-25 21:33N 38°01' E 023°32'0 0.0
2017-Mar-25 20:33N 38°01' E 023°32'0 0.0
2017-Mar-25 19:33N 38°01' E 023°32'0 0.0
2017-Mar-25 18:33N 38°01' E 023°32'0 0.0
2017-Mar-25 17:33N 38°01' E 023°32'0 0.0
2017-Mar-25 16:33N 38°01' E 023°32'0 0.0
2017-Mar-25 15:33N 38°01' E 023°32'0 0.1
2017-Mar-25 14:33N 38°01' E 023°32'7 7.4
2017-Mar-25 13:34N 37°55' E 023°37'1110.5
2017-Mar-25 12:33N 37°45' E 023°42'1110.8
2017-Mar-25 11:34N 37°35' E 023°47'1110.7
2017-Mar-25 10:33N 37°25' E 023°51'1110.3
2017-Mar-25 09:32N 37°15' E 023°56'1010.4
2017-Mar-25 08:32N 37°06' E 024°01'35 0.8
2017-Mar-23 11:33N 37°39' E 023°44'1010.1
2017-Mar-23 10:33N 37°47' E 023°38'10 9.5
2017-Mar-23 09:34N 37°57' E 023°36'6 6.0
2017-Mar-23 08:34N 38°02' E 023°32'0 0.1
2017-Mar-23 07:31N 38°02' E 023°32'0 0.0
2017-Mar-23 06:31N 38°02' E 023°32'0 0.0
2017-Mar-23 05:31N 38°02' E 023°32'0 0.0
2017-Mar-23 04:31N 38°02' E 023°32'0 0.0
2017-Mar-23 03:31N 38°02' E 023°32'0 0.1
2017-Mar-23 02:31N 38°02' E 023°32'3 3.0
2017-Mar-23 01:33N 38°02' E 023°36'0 0.1
2017-Mar-23 00:33N 38°02' E 023°36'0 0.0
2017-Mar-22 23:33N 38°02' E 023°36'0 0.0
2017-Mar-22 22:33N 38°02' E 023°36'0 0.0
2017-Mar-22 21:30N 38°02' E 023°36'0 0.0
2017-Mar-22 20:30N 38°02' E 023°36'0 0.0
2017-Mar-22 19:30N 38°02' E 023°36'0 0.0
2017-Mar-22 18:33N 38°02' E 023°36'0 0.0
2017-Mar-22 17:27N 38°02' E 023°36'0 0.0
2017-Mar-22 16:33N 38°02' E 023°36'0 0.0
2017-Mar-22 15:30N 38°02' E 023°36'3 3.1
2017-Mar-22 14:34N 38°01' E 023°32'1 0.5
2017-Mar-22 13:31N 38°02' E 023°32'0 0.0
2017-Mar-22 12:33N 38°02' E 023°32'0 0.0
2017-Mar-22 11:34N 38°02' E 023°32'0 0.0
2017-Mar-22 10:33N 38°02' E 023°32'0 0.1
2017-Mar-22 09:33N 38°02' E 023°32'0 0.0
2017-Mar-22 08:33N 38°02' E 023°32'0 0.1
2017-Mar-22 07:33N 38°02' E 023°32'0 0.0
2017-Mar-22 06:34N 38°02' E 023°32'1 1.0
2017-Mar-22 05:33N 38°01' E 023°32'8 8.0
2017-Mar-22 04:34N 37°54' E 023°37'1010.0
2017-Mar-22 03:33N 37°45' E 023°42'1010.3
2017-Mar-22 02:33N 37°36' E 023°50'  
Track history (hours):
 
Tides and Currents Weather Stations Pressure Air Temp Water Temp Dewpoint Dewpoint Depression Visibility Wind Speed Wind Dir Waves Ship Positions

Eko 4

Last reported at 2017-Mar-30 20:31 UTC. Time now 2017-Mar-30 20:34 UTC.
Position N 38°02' E 023°32'.

Length 88 m; draft 5 m.

Type: Ship (hazmat cat A). MMSI: 240912000.

Date/timePositionNaut miles runAvg speedWind from/ knotsBaromVisibWave heightAir tempDewpointWater temp
2017-Mar-30 20:31N 38°02' E 023°32'0 0.0
2017-Mar-30 19:31N 38°02' E 023°32'0 0.0
2017-Mar-30 18:31N 38°02' E 023°32'0 0.0
2017-Mar-30 17:28N 38°02' E 023°32'0 0.0
2017-Mar-30 16:31N 38°02' E 023°32'0 0.5
2017-Mar-30 15:34N 38°01' E 023°32'7 6.8
2017-Mar-30 14:34N 37°55' E 023°36'0 0.4
2017-Mar-30 13:34N 37°55' E 023°36'5 5.3
2017-Mar-30 12:33N 37°50' E 023°39'1010.3
2017-Mar-30 11:33N 37°41' E 023°45'5 0.1
2017-Mar-28 14:08N 37°36' E 023°48'5 9.4
2017-Mar-28 13:33N 37°39' E 023°42'1010.4
2017-Mar-28 12:34N 37°49' E 023°37'9 9.0
2017-Mar-28 11:34N 37°57' E 023°33'4 4.1
2017-Mar-28 10:30N 38°01' E 023°36'0 0.0
2017-Mar-28 09:33N 38°01' E 023°36'0 0.0
2017-Mar-28 08:33N 38°01' E 023°36'0 0.0
2017-Mar-28 07:33N 38°01' E 023°36'0 0.0
2017-Mar-28 06:33N 38°01' E 023°36'0 0.0
2017-Mar-28 05:33N 38°01' E 023°36'0 0.0
2017-Mar-28 04:33N 38°01' E 023°36'0 0.0
2017-Mar-28 03:33N 38°01' E 023°36'0 0.0
2017-Mar-28 02:33N 38°01' E 023°36'0 0.0
2017-Mar-28 01:33N 38°01' E 023°36'0 0.0
2017-Mar-28 00:33N 38°01' E 023°36'0 0.0
2017-Mar-27 23:33N 38°01' E 023°36'0 0.0
2017-Mar-27 22:33N 38°01' E 023°36'0 0.0
2017-Mar-27 21:33N 38°01' E 023°36'0 0.0
2017-Mar-27 20:33N 38°01' E 023°36'0 0.0
2017-Mar-27 19:33N 38°01' E 023°36'0 0.0
2017-Mar-27 18:33N 38°01' E 023°36'0 0.0
2017-Mar-27 17:33N 38°01' E 023°36'0 0.0
2017-Mar-27 16:33N 38°01' E 023°36'0 0.0
2017-Mar-27 15:33N 38°01' E 023°36'0 0.0
2017-Mar-27 14:33N 38°01' E 023°36'0 0.0
2017-Mar-27 13:33N 38°01' E 023°36'0 0.0
2017-Mar-27 12:33N 38°01' E 023°36'3 3.3
2017-Mar-27 11:31N 38°02' E 023°31'0 0.0
2017-Mar-27 10:31N 38°02' E 023°31'0 0.0
2017-Mar-27 09:31N 38°02' E 023°31'0 0.0
2017-Mar-27 08:31N 38°02' E 023°31'0 0.0
2017-Mar-27 07:31N 38°02' E 023°31'0 0.0
2017-Mar-27 06:31N 38°02' E 023°31'0 0.0
2017-Mar-27 05:34N 38°02' E 023°31'1 0.8
2017-Mar-27 04:33N 38°01' E 023°32'3 0.2
2017-Mar-26 16:11N 38°02' E 023°36'3 4.5
2017-Mar-26 15:33N 38°01' E 023°32'0 0.1
2017-Mar-26 14:33N 38°01' E 023°32'0 0.0
2017-Mar-26 13:33N 38°01' E 023°32'0 0.0
2017-Mar-26 12:33N 38°01' E 023°32'0 0.0
2017-Mar-26 11:33N 38°01' E 023°32'0 0.0
2017-Mar-26 10:33N 38°01' E 023°32'0 0.0
2017-Mar-26 09:33N 38°01' E 023°32'0 0.0
2017-Mar-26 08:33N 38°01' E 023°32'0 0.1
2017-Mar-26 07:33N 38°01' E 023°32'0 0.0
2017-Mar-26 06:33N 38°01' E 023°32'0 0.0
2017-Mar-26 05:33N 38°01' E 023°32'0 0.0
2017-Mar-26 04:33N 38°01' E 023°32'0 0.0
2017-Mar-26 03:33N 38°01' E 023°32'0 0.0
2017-Mar-26 02:33N 38°01' E 023°32'0 0.0
2017-Mar-26 01:33N 38°01' E 023°32'0 0.0
2017-Mar-26 00:33N 38°01' E 023°32'0 0.0
2017-Mar-25 23:33N 38°01' E 023°32'0 0.0
2017-Mar-25 22:33N 38°01' E 023°32'0 0.0
2017-Mar-25 21:33N 38°01' E 023°32'0 0.0
2017-Mar-25 20:33N 38°01' E 023°32'0 0.0
2017-Mar-25 19:33N 38°01' E 023°32'0 0.0
2017-Mar-25 18:33N 38°01' E 023°32'0 0.0
2017-Mar-25 17:33N 38°01' E 023°32'0 0.0
2017-Mar-25 16:33N 38°01' E 023°32'0 0.0
2017-Mar-25 15:33N 38°01' E 023°32'0 0.1
2017-Mar-25 14:33N 38°01' E 023°32'7 7.4
2017-Mar-25 13:34N 37°55' E 023°37'1110.5
2017-Mar-25 12:33N 37°45' E 023°42'1110.8
2017-Mar-25 11:34N 37°35' E 023°47'1110.7
2017-Mar-25 10:33N 37°25' E 023°51'1110.3
2017-Mar-25 09:32N 37°15' E 023°56'1010.4
2017-Mar-25 08:32N 37°06' E 024°01'35 0.8
2017-Mar-23 11:33N 37°39' E 023°44'1010.1
2017-Mar-23 10:33N 37°47' E 023°38'10 9.5
2017-Mar-23 09:34N 37°57' E 023°36'6 6.0
2017-Mar-23 08:34N 38°02' E 023°32'0 0.1
2017-Mar-23 07:31N 38°02' E 023°32'0 0.0
2017-Mar-23 06:31N 38°02' E 023°32'0 0.0
2017-Mar-23 05:31N 38°02' E 023°32'0 0.0
2017-Mar-23 04:31N 38°02' E 023°32'0 0.0
2017-Mar-23 03:31N 38°02' E 023°32'0 0.1
2017-Mar-23 02:31N 38°02' E 023°32'3 3.0
2017-Mar-23 01:33N 38°02' E 023°36'0 0.1
2017-Mar-23 00:33N 38°02' E 023°36'0 0.0
2017-Mar-22 23:33N 38°02' E 023°36'0 0.0
2017-Mar-22 22:33N 38°02' E 023°36'0 0.0
2017-Mar-22 21:30N 38°02' E 023°36'0 0.0
2017-Mar-22 20:30N 38°02' E 023°36'0 0.0
2017-Mar-22 19:30N 38°02' E 023°36'0 0.0
2017-Mar-22 18:33N 38°02' E 023°36'0 0.0
2017-Mar-22 17:27N 38°02' E 023°36'0 0.0
2017-Mar-22 16:33N 38°02' E 023°36'0 0.0
2017-Mar-22 15:30N 38°02' E 023°36'3 3.1
2017-Mar-22 14:34N 38°01' E 023°32'1 0.5
2017-Mar-22 13:31N 38°02' E 023°32'0 0.0
2017-Mar-22 12:33N 38°02' E 023°32'0 0.0
2017-Mar-22 11:34N 38°02' E 023°32'0 0.0
2017-Mar-22 10:33N 38°02' E 023°32'0 0.1
2017-Mar-22 09:33N 38°02' E 023°32'0 0.0
2017-Mar-22 08:33N 38°02' E 023°32'0 0.1
2017-Mar-22 07:33N 38°02' E 023°32'0 0.0
2017-Mar-22 06:34N 38°02' E 023°32'1 1.0
2017-Mar-22 05:33N 38°01' E 023°32'8 8.0
2017-Mar-22 04:34N 37°54' E 023°37'1010.0
2017-Mar-22 03:33N 37°45' E 023°42'1010.3
2017-Mar-22 02:33N 37°36' E 023°50'  

Dump ship's entire track history